San Fermin Berria — EBVW — position and weather

sailwx.info

Track history (hours):
 
Tides and Currents Weather Stations Pressure Air Temp Water Temp Dewpoint Dewpoint Depression Visibility Wind Speed Wind Dir Waves Ship Positions

San Fermin Berria

Last reported at 2016-Jul-25 01:33 UTC. Time now 2016-Jul-25 02:26 UTC.
Position N 43°23' W 001°48'.

Length 30 m.

Type: Fishing. MMSI: 224114650.

Date/timePositionNaut miles runAvg speedWind from/ knotsBaromVisibWave heightAir tempDewpointWater temp
2016-Jul-25 01:33N 43°23' W 001°48'0 0.0
2016-Jul-25 00:33N 43°23' W 001°48'0 0.0
2016-Jul-24 23:31N 43°23' W 001°48'0 0.0
2016-Jul-24 22:29N 43°23' W 001°48'0 0.0
2016-Jul-24 21:33N 43°23' W 001°48'0 0.0
2016-Jul-24 17:03N 43°23' W 001°48'0 0.0
2016-Jul-24 12:34N 43°23' W 001°48'0 0.0
2016-Jul-24 11:33N 43°23' W 001°48'0 0.0
2016-Jul-24 10:13N 43°23' W 001°48'0 0.0
2016-Jul-24 09:34N 43°23' W 001°48'0 0.0
2016-Jul-24 08:32N 43°23' W 001°48'0 0.0
2016-Jul-24 07:33N 43°23' W 001°48'0 0.1
2016-Jul-24 06:33N 43°23' W 001°47'0 0.0
2016-Jul-24 05:33N 43°23' W 001°47'1 0.9
2016-Jul-24 04:33N 43°24' W 001°47'172 3.6
2016-Jul-22 04:27N 43°42' W 005°43'9 9.4
2016-Jul-22 03:31N 43°34' W 005°41'1 0.5
2016-Jul-22 02:20N 43°33' W 005°42'0 0.0
2016-Jul-22 01:29N 43°33' W 005°42'2 2.4
2016-Jul-22 00:31N 43°36' W 005°40'  
2016-Jul-19 14:07N 44°32' W 006°19'187 5.4
2016-Jul-18 03:24N 44°07' W 002°01'910.7
2016-Jul-18 02:33N 44°06' W 001°48'2 1.6
2016-Jul-18 01:32N 44°05' W 001°46'29 6.5
2016-Jul-17 21:05N 43°36' W 001°47'610.4
2016-Jul-17 20:33N 43°31' W 001°47'8 7.6
2016-Jul-17 19:33N 43°23' W 001°48'0 0.1
2016-Jul-17 18:33N 43°23' W 001°47'0 0.0
2016-Jul-17 17:33N 43°23' W 001°47'0 0.0
2016-Jul-17 16:33N 43°23' W 001°48'0 0.0
2016-Jul-17 15:33N 43°23' W 001°47'0 0.0
2016-Jul-17 14:33N 43°23' W 001°47'0 0.0
2016-Jul-17 13:33N 43°23' W 001°47'0 0.0
2016-Jul-17 12:33N 43°23' W 001°47'0 0.0
2016-Jul-17 11:33N 43°23' W 001°47'0 0.0
2016-Jul-17 10:33N 43°23' W 001°48'0 0.0
2016-Jul-17 09:33N 43°23' W 001°47'0 0.0
2016-Jul-17 08:33N 43°23' W 001°48'0 0.0
2016-Jul-17 07:31N 43°23' W 001°47'0 0.0
2016-Jul-17 06:33N 43°23' W 001°47'0 0.0
2016-Jul-17 04:33N 43°23' W 001°47'0 0.0
2016-Jul-17 03:33N 43°23' W 001°47'0 0.0
2016-Jul-17 02:33N 43°23' W 001°48'0 0.0
2016-Jul-17 01:33N 43°23' W 001°48'0 0.0
2016-Jul-17 00:33N 43°23' W 001°47'0 0.0
2016-Jul-16 23:33N 43°23' W 001°47'0 0.0
2016-Jul-16 22:33N 43°23' W 001°48'0 0.0
2016-Jul-16 21:33N 43°23' W 001°47'0 0.0
2016-Jul-16 20:33N 43°23' W 001°47'0 0.0
2016-Jul-16 19:33N 43°23' W 001°48'0 0.0
2016-Jul-16 18:33N 43°23' W 001°48'0 0.0
2016-Jul-16 17:33N 43°23' W 001°47'0 0.0
2016-Jul-16 16:33N 43°23' W 001°47'0 0.0
2016-Jul-16 15:33N 43°23' W 001°47'0 0.0
2016-Jul-16 14:33N 43°23' W 001°47'0 0.0
2016-Jul-16 13:33N 43°23' W 001°47'0 0.1
2016-Jul-16 12:33N 43°23' W 001°47'2 1.9
2016-Jul-16 11:32N 43°25' W 001°48'53 7.5
2016-Jul-16 04:33N 44°04' W 002°38'0 0.4
2016-Jul-16 03:29N 44°04' W 002°37'0 0.4
2016-Jul-16 02:33N 44°04' W 002°37'1 0.6
2016-Jul-16 01:34N 44°04' W 002°36'  
Track history (hours):
 
Tides and Currents Weather Stations Pressure Air Temp Water Temp Dewpoint Dewpoint Depression Visibility Wind Speed Wind Dir Waves Ship Positions

San Fermin Berria

Last reported at 2016-Jul-25 01:33 UTC. Time now 2016-Jul-25 02:26 UTC.
Position N 43°23' W 001°48'.

Length 30 m.

Type: Fishing. MMSI: 224114650.

Date/timePositionNaut miles runAvg speedWind from/ knotsBaromVisibWave heightAir tempDewpointWater temp
2016-Jul-25 01:33N 43°23' W 001°48'0 0.0
2016-Jul-25 00:33N 43°23' W 001°48'0 0.0
2016-Jul-24 23:31N 43°23' W 001°48'0 0.0
2016-Jul-24 22:29N 43°23' W 001°48'0 0.0
2016-Jul-24 21:33N 43°23' W 001°48'0 0.0
2016-Jul-24 17:03N 43°23' W 001°48'0 0.0
2016-Jul-24 12:34N 43°23' W 001°48'0 0.0
2016-Jul-24 11:33N 43°23' W 001°48'0 0.0
2016-Jul-24 10:13N 43°23' W 001°48'0 0.0
2016-Jul-24 09:34N 43°23' W 001°48'0 0.0
2016-Jul-24 08:32N 43°23' W 001°48'0 0.0
2016-Jul-24 07:33N 43°23' W 001°48'0 0.1
2016-Jul-24 06:33N 43°23' W 001°47'0 0.0
2016-Jul-24 05:33N 43°23' W 001°47'1 0.9
2016-Jul-24 04:33N 43°24' W 001°47'172 3.6
2016-Jul-22 04:27N 43°42' W 005°43'9 9.4
2016-Jul-22 03:31N 43°34' W 005°41'1 0.5
2016-Jul-22 02:20N 43°33' W 005°42'0 0.0
2016-Jul-22 01:29N 43°33' W 005°42'2 2.4
2016-Jul-22 00:31N 43°36' W 005°40'  
2016-Jul-19 14:07N 44°32' W 006°19'187 5.4
2016-Jul-18 03:24N 44°07' W 002°01'910.7
2016-Jul-18 02:33N 44°06' W 001°48'2 1.6
2016-Jul-18 01:32N 44°05' W 001°46'29 6.5
2016-Jul-17 21:05N 43°36' W 001°47'610.4
2016-Jul-17 20:33N 43°31' W 001°47'8 7.6
2016-Jul-17 19:33N 43°23' W 001°48'0 0.1
2016-Jul-17 18:33N 43°23' W 001°47'0 0.0
2016-Jul-17 17:33N 43°23' W 001°47'0 0.0
2016-Jul-17 16:33N 43°23' W 001°48'0 0.0
2016-Jul-17 15:33N 43°23' W 001°47'0 0.0
2016-Jul-17 14:33N 43°23' W 001°47'0 0.0
2016-Jul-17 13:33N 43°23' W 001°47'0 0.0
2016-Jul-17 12:33N 43°23' W 001°47'0 0.0
2016-Jul-17 11:33N 43°23' W 001°47'0 0.0
2016-Jul-17 10:33N 43°23' W 001°48'0 0.0
2016-Jul-17 09:33N 43°23' W 001°47'0 0.0
2016-Jul-17 08:33N 43°23' W 001°48'0 0.0
2016-Jul-17 07:31N 43°23' W 001°47'0 0.0
2016-Jul-17 06:33N 43°23' W 001°47'0 0.0
2016-Jul-17 04:33N 43°23' W 001°47'0 0.0
2016-Jul-17 03:33N 43°23' W 001°47'0 0.0
2016-Jul-17 02:33N 43°23' W 001°48'0 0.0
2016-Jul-17 01:33N 43°23' W 001°48'0 0.0
2016-Jul-17 00:33N 43°23' W 001°47'0 0.0
2016-Jul-16 23:33N 43°23' W 001°47'0 0.0
2016-Jul-16 22:33N 43°23' W 001°48'0 0.0
2016-Jul-16 21:33N 43°23' W 001°47'0 0.0
2016-Jul-16 20:33N 43°23' W 001°47'0 0.0
2016-Jul-16 19:33N 43°23' W 001°48'0 0.0
2016-Jul-16 18:33N 43°23' W 001°48'0 0.0
2016-Jul-16 17:33N 43°23' W 001°47'0 0.0
2016-Jul-16 16:33N 43°23' W 001°47'0 0.0
2016-Jul-16 15:33N 43°23' W 001°47'0 0.0
2016-Jul-16 14:33N 43°23' W 001°47'0 0.0
2016-Jul-16 13:33N 43°23' W 001°47'0 0.1
2016-Jul-16 12:33N 43°23' W 001°47'2 1.9
2016-Jul-16 11:32N 43°25' W 001°48'53 7.5
2016-Jul-16 04:33N 44°04' W 002°38'0 0.4
2016-Jul-16 03:29N 44°04' W 002°37'0 0.4
2016-Jul-16 02:33N 44°04' W 002°37'1 0.6
2016-Jul-16 01:34N 44°04' W 002°36'  

Dump ship's entire track history